sensor_id;sensor_type;location;lat;lon;timestamp;temperature;humidity
71155;DHT22;59375;53.216;5.728;2023-02-11T00:01:28;5.90;99.90
71155;DHT22;59375;53.216;5.728;2023-02-11T00:03:56;6.00;99.90
71155;DHT22;59375;53.216;5.728;2023-02-11T00:06:22;6.00;99.90
71155;DHT22;59375;53.216;5.728;2023-02-11T00:08:48;6.10;99.90
71155;DHT22;59375;53.216;5.728;2023-02-11T00:11:14;6.20;99.90
71155;DHT22;59375;53.216;5.728;2023-02-11T00:13:40;6.20;99.90
71155;DHT22;59375;53.216;5.728;2023-02-11T00:16:06;6.20;99.90
71155;DHT22;59375;53.216;5.728;2023-02-11T00:18:32;6.20;99.90
71155;DHT22;59375;53.216;5.728;2023-02-11T00:20:57;6.30;99.90
71155;DHT22;59375;53.216;5.728;2023-02-11T00:23:23;6.30;99.90
71155;DHT22;59375;53.216;5.728;2023-02-11T00:25:48;6.30;99.90
71155;DHT22;59375;53.216;5.728;2023-02-11T00:28:14;6.30;99.90
71155;DHT22;59375;53.216;5.728;2023-02-11T00:30:39;6.30;99.90
71155;DHT22;59375;53.216;5.728;2023-02-11T00:33:05;6.30;99.90
71155;DHT22;59375;53.216;5.728;2023-02-11T00:35:30;6.30;99.90
71155;DHT22;59375;53.216;5.728;2023-02-11T00:37:56;6.30;99.90
71155;DHT22;59375;53.216;5.728;2023-02-11T00:40:21;6.30;99.90
71155;DHT22;59375;53.216;5.728;2023-02-11T00:42:47;6.30;99.90
71155;DHT22;59375;53.216;5.728;2023-02-11T00:45:12;6.30;99.90
71155;DHT22;59375;53.216;5.728;2023-02-11T00:47:38;6.40;99.90
71155;DHT22;59375;53.216;5.728;2023-02-11T00:50:04;6.40;99.90
71155;DHT22;59375;53.216;5.728;2023-02-11T00:52:30;6.40;99.90
71155;DHT22;59375;53.216;5.728;2023-02-11T00:54:55;6.50;99.90
71155;DHT22;59375;53.216;5.728;2023-02-11T00:57:21;6.50;99.90
71155;DHT22;59375;53.216;5.728;2023-02-11T00:59:46;6.50;99.90
71155;DHT22;59375;53.216;5.728;2023-02-11T01:02:13;6.50;99.90
71155;DHT22;59375;53.216;5.728;2023-02-11T01:04:39;6.50;99.90
71155;DHT22;59375;53.216;5.728;2023-02-11T01:07:04;6.60;99.90
71155;DHT22;59375;53.216;5.728;2023-02-11T01:09:30;6.60;99.90
71155;DHT22;59375;53.216;5.728;2023-02-11T01:11:55;6.60;99.90
71155;DHT22;59375;53.216;5.728;2023-02-11T01:14:21;6.60;99.90
71155;DHT22;59375;53.216;5.728;2023-02-11T01:16:46;6.70;99.90
71155;DHT22;59375;53.216;5.728;2023-02-11T01:19:12;6.70;99.90
71155;DHT22;59375;53.216;5.728;2023-02-11T01:21:37;6.80;99.90
71155;DHT22;59375;53.216;5.728;2023-02-11T01:24:03;6.80;99.90
71155;DHT22;59375;53.216;5.728;2023-02-11T01:26:29;6.80;99.90
71155;DHT22;59375;53.216;5.728;2023-02-11T01:28:54;6.90;99.90
71155;DHT22;59375;53.216;5.728;2023-02-11T01:31:19;6.90;99.90
71155;DHT22;59375;53.216;5.728;2023-02-11T01:33:45;6.90;99.90
71155;DHT22;59375;53.216;5.728;2023-02-11T01:36:11;6.90;99.90
71155;DHT22;59375;53.216;5.728;2023-02-11T01:38:36;6.90;99.90
71155;DHT22;59375;53.216;5.728;2023-02-11T01:41:06;6.90;99.90
71155;DHT22;59375;53.216;5.728;2023-02-11T01:43:40;7.00;99.90
71155;DHT22;59375;53.216;5.728;2023-02-11T01:48:45;7.10;99.90
71155;DHT22;59375;53.216;5.728;2023-02-11T01:51:20;7.10;99.90
71155;DHT22;59375;53.216;5.728;2023-02-11T01:53:46;7.10;99.90
71155;DHT22;59375;53.216;5.728;2023-02-11T01:56:30;7.10;99.90
71155;DHT22;59375;53.216;5.728;2023-02-11T01:59:23;7.10;99.90
71155;DHT22;59375;53.216;5.728;2023-02-11T02:01:54;7.10;99.90
71155;DHT22;59375;53.216;5.728;2023-02-11T02:04:21;7.10;99.90
71155;DHT22;59375;53.216;5.728;2023-02-11T02:06:48;7.10;99.90
71155;DHT22;59375;53.216;5.728;2023-02-11T02:09:16;7.10;99.90
71155;DHT22;59375;53.216;5.728;2023-02-11T02:11:44;7.10;99.90
71155;DHT22;59375;53.216;5.728;2023-02-11T02:14:09;7.20;99.90
71155;DHT22;59375;53.216;5.728;2023-02-11T02:16:35;7.20;99.90
71155;DHT22;59375;53.216;5.728;2023-02-11T02:37:41;7.20;99.90
71155;DHT22;59375;53.216;5.728;2023-02-11T02:40:31;7.20;99.90
71155;DHT22;59375;53.216;5.728;2023-02-11T02:42:55;7.30;99.90
71155;DHT22;59375;53.216;5.728;2023-02-11T02:45:20;7.30;99.90
71155;DHT22;59375;53.216;5.728;2023-02-11T02:47:46;7.30;99.90
71155;DHT22;59375;53.216;5.728;2023-02-11T02:50:11;7.30;99.90
71155;DHT22;59375;53.216;5.728;2023-02-11T02:55:27;7.30;99.90
71155;DHT22;59375;53.216;5.728;2023-02-11T03:00:30;7.30;99.90
71155;DHT22;59375;53.216;5.728;2023-02-11T03:05:38;7.40;99.90
71155;DHT22;59375;53.216;5.728;2023-02-11T03:08:06;7.40;99.90
71155;DHT22;59375;53.216;5.728;2023-02-11T03:10:44;7.40;99.90
71155;DHT22;59375;53.216;5.728;2023-02-11T03:13:10;7.40;99.90
71155;DHT22;59375;53.216;5.728;2023-02-11T03:15:38;7.40;99.90
71155;DHT22;59375;53.216;5.728;2023-02-11T03:18:05;7.40;99.90
71155;DHT22;59375;53.216;5.728;2023-02-11T03:20:32;7.40;99.90
71155;DHT22;59375;53.216;5.728;2023-02-11T03:23:06;7.40;99.90
71155;DHT22;59375;53.216;5.728;2023-02-11T03:25:43;7.40;99.90
71155;DHT22;59375;53.216;5.728;2023-02-11T03:31:25;7.40;99.90
71155;DHT22;59375;53.216;5.728;2023-02-11T03:33:33;7.40;99.90
71155;DHT22;59375;53.216;5.728;2023-02-11T03:36:04;7.50;99.90
71155;DHT22;59375;53.216;5.728;2023-02-11T03:38:32;7.40;99.90
71155;DHT22;59375;53.216;5.728;2023-02-11T03:40:59;7.40;99.90
71155;DHT22;59375;53.216;5.728;2023-02-11T03:43:36;7.40;99.90
71155;DHT22;59375;53.216;5.728;2023-02-11T03:46:04;7.40;99.90
71155;DHT22;59375;53.216;5.728;2023-02-11T03:48:32;7.50;99.90
71155;DHT22;59375;53.216;5.728;2023-02-11T03:50:58;7.50;99.90
71155;DHT22;59375;53.216;5.728;2023-02-11T03:53:25;7.50;99.90
71155;DHT22;59375;53.216;5.728;2023-02-11T03:55:51;7.50;99.90
71155;DHT22;59375;53.216;5.728;2023-02-11T03:58:18;7.50;99.90
71155;DHT22;59375;53.216;5.728;2023-02-11T04:00:43;7.50;99.90
71155;DHT22;59375;53.216;5.728;2023-02-11T04:03:09;7.50;99.90
71155;DHT22;59375;53.216;5.728;2023-02-11T04:05:34;7.50;99.90
71155;DHT22;59375;53.216;5.728;2023-02-11T04:08:00;7.50;99.90
71155;DHT22;59375;53.216;5.728;2023-02-11T04:10:25;7.50;99.90
71155;DHT22;59375;53.216;5.728;2023-02-11T04:12:51;7.50;99.90
71155;DHT22;59375;53.216;5.728;2023-02-11T04:15:16;7.50;99.90
71155;DHT22;59375;53.216;5.728;2023-02-11T04:17:42;7.50;99.90
71155;DHT22;59375;53.216;5.728;2023-02-11T04:20:07;7.50;99.90
71155;DHT22;59375;53.216;5.728;2023-02-11T04:22:33;7.50;99.90
71155;DHT22;59375;53.216;5.728;2023-02-11T04:24:58;7.60;99.90
71155;DHT22;59375;53.216;5.728;2023-02-11T04:27:24;7.60;99.90
71155;DHT22;59375;53.216;5.728;2023-02-11T04:29:50;7.60;99.90
71155;DHT22;59375;53.216;5.728;2023-02-11T04:32:15;7.60;99.90
71155;DHT22;59375;53.216;5.728;2023-02-11T04:34:41;7.60;99.90
71155;DHT22;59375;53.216;5.728;2023-02-11T04:37:06;7.60;99.90
71155;DHT22;59375;53.216;5.728;2023-02-11T04:39:32;7.60;99.90
71155;DHT22;59375;53.216;5.728;2023-02-11T04:41:58;7.50;99.90
71155;DHT22;59375;53.216;5.728;2023-02-11T04:44:23;7.60;99.90
71155;DHT22;59375;53.216;5.728;2023-02-11T04:46:49;7.60;99.90
71155;DHT22;59375;53.216;5.728;2023-02-11T04:49:14;7.60;99.90
71155;DHT22;59375;53.216;5.728;2023-02-11T04:51:40;7.60;99.90
71155;DHT22;59375;53.216;5.728;2023-02-11T04:54:06;7.60;99.90
71155;DHT22;59375;53.216;5.728;2023-02-11T04:56:31;7.60;99.90
71155;DHT22;59375;53.216;5.728;2023-02-11T04:58:57;7.60;99.90
71155;DHT22;59375;53.216;5.728;2023-02-11T05:01:22;7.60;99.90
71155;DHT22;59375;53.216;5.728;2023-02-11T05:03:48;7.70;99.90
71155;DHT22;59375;53.216;5.728;2023-02-11T05:06:13;7.70;99.90
71155;DHT22;59375;53.216;5.728;2023-02-11T05:08:39;7.70;99.90
71155;DHT22;59375;53.216;5.728;2023-02-11T05:11:04;7.70;99.90
71155;DHT22;59375;53.216;5.728;2023-02-11T05:13:30;7.70;99.90
71155;DHT22;59375;53.216;5.728;2023-02-11T05:15:55;7.70;99.90
71155;DHT22;59375;53.216;5.728;2023-02-11T05:18:21;7.70;99.90
71155;DHT22;59375;53.216;5.728;2023-02-11T05:20:47;7.70;99.90
71155;DHT22;59375;53.216;5.728;2023-02-11T05:23:12;7.70;99.90
71155;DHT22;59375;53.216;5.728;2023-02-11T05:25:38;7.70;99.90
71155;DHT22;59375;53.216;5.728;2023-02-11T05:28:03;7.70;99.90
71155;DHT22;59375;53.216;5.728;2023-02-11T05:30:29;7.70;99.90
71155;DHT22;59375;53.216;5.728;2023-02-11T05:32:54;7.70;99.90
71155;DHT22;59375;53.216;5.728;2023-02-11T05:35:20;7.70;99.90
71155;DHT22;59375;53.216;5.728;2023-02-11T05:37:46;7.60;99.90
71155;DHT22;59375;53.216;5.728;2023-02-11T05:40:11;7.60;99.90
71155;DHT22;59375;53.216;5.728;2023-02-11T05:42:37;7.60;99.90
71155;DHT22;59375;53.216;5.728;2023-02-11T05:45:02;7.60;99.90
71155;DHT22;59375;53.216;5.728;2023-02-11T05:47:28;7.60;99.90
71155;DHT22;59375;53.216;5.728;2023-02-11T05:49:53;7.50;99.90
71155;DHT22;59375;53.216;5.728;2023-02-11T05:52:22;7.50;99.90
71155;DHT22;59375;53.216;5.728;2023-02-11T05:54:47;7.30;99.90
71155;DHT22;59375;53.216;5.728;2023-02-11T05:57:13;7.30;99.90
71155;DHT22;59375;53.216;5.728;2023-02-11T05:59:39;7.30;99.90
71155;DHT22;59375;53.216;5.728;2023-02-11T06:02:05;7.20;99.90
71155;DHT22;59375;53.216;5.728;2023-02-11T06:04:32;7.20;99.90
71155;DHT22;59375;53.216;5.728;2023-02-11T06:06:58;7.20;99.90
71155;DHT22;59375;53.216;5.728;2023-02-11T06:09:23;7.20;99.90
71155;DHT22;59375;53.216;5.728;2023-02-11T06:11:49;7.10;99.90
71155;DHT22;59375;53.216;5.728;2023-02-11T06:14:14;7.10;99.90
71155;DHT22;59375;53.216;5.728;2023-02-11T06:16:40;7.10;99.90
71155;DHT22;59375;53.216;5.728;2023-02-11T06:19:05;7.10;99.90
71155;DHT22;59375;53.216;5.728;2023-02-11T06:21:30;7.10;99.90
71155;DHT22;59375;53.216;5.728;2023-02-11T06:23:56;7.10;99.90
71155;DHT22;59375;53.216;5.728;2023-02-11T06:26:21;7.10;99.90
71155;DHT22;59375;53.216;5.728;2023-02-11T06:28:47;7.10;99.90
71155;DHT22;59375;53.216;5.728;2023-02-11T06:31:13;7.10;99.90
71155;DHT22;59375;53.216;5.728;2023-02-11T06:33:39;7.20;99.90
71155;DHT22;59375;53.216;5.728;2023-02-11T06:36:10;7.20;99.90
71155;DHT22;59375;53.216;5.728;2023-02-11T06:38:36;7.20;99.90
71155;DHT22;59375;53.216;5.728;2023-02-11T06:41:02;7.30;99.90
71155;DHT22;59375;53.216;5.728;2023-02-11T06:43:27;7.30;99.90
71155;DHT22;59375;53.216;5.728;2023-02-11T06:45:53;7.30;99.90
71155;DHT22;59375;53.216;5.728;2023-02-11T06:48:20;7.30;99.90
71155;DHT22;59375;53.216;5.728;2023-02-11T06:50:46;7.30;99.90
71155;DHT22;59375;53.216;5.728;2023-02-11T06:53:12;7.30;99.90
71155;DHT22;59375;53.216;5.728;2023-02-11T06:55:37;7.30;99.90
71155;DHT22;59375;53.216;5.728;2023-02-11T06:58:03;7.30;99.90
71155;DHT22;59375;53.216;5.728;2023-02-11T07:00:28;7.20;99.90
71155;DHT22;59375;53.216;5.728;2023-02-11T07:02:54;7.20;99.90
71155;DHT22;59375;53.216;5.728;2023-02-11T07:05:19;7.20;99.90
71155;DHT22;59375;53.216;5.728;2023-02-11T07:07:45;7.20;99.90
71155;DHT22;59375;53.216;5.728;2023-02-11T07:10:10;7.20;99.90
71155;DHT22;59375;53.216;5.728;2023-02-11T07:12:36;7.10;99.90
71155;DHT22;59375;53.216;5.728;2023-02-11T07:15:01;7.10;99.90
71155;DHT22;59375;53.216;5.728;2023-02-11T07:17:27;7.10;99.90
71155;DHT22;59375;53.216;5.728;2023-02-11T07:19:52;7.10;99.90
71155;DHT22;59375;53.216;5.728;2023-02-11T07:22:18;7.10;99.90
71155;DHT22;59375;53.216;5.728;2023-02-11T07:24:43;7.10;99.90
71155;DHT22;59375;53.216;5.728;2023-02-11T07:27:09;7.10;99.90
71155;DHT22;59375;53.216;5.728;2023-02-11T07:29:34;7.10;99.90
71155;DHT22;59375;53.216;5.728;2023-02-11T07:32:00;7.10;99.90
71155;DHT22;59375;53.216;5.728;2023-02-11T07:34:25;7.10;99.90
71155;DHT22;59375;53.216;5.728;2023-02-11T07:36:52;7.10;99.90
71155;DHT22;59375;53.216;5.728;2023-02-11T07:39:18;7.10;99.90
71155;DHT22;59375;53.216;5.728;2023-02-11T07:41:44;7.10;99.90
71155;DHT22;59375;53.216;5.728;2023-02-11T07:44:12;7.10;99.90
71155;DHT22;59375;53.216;5.728;2023-02-11T07:46:37;7.10;99.90
71155;DHT22;59375;53.216;5.728;2023-02-11T07:49:07;7.10;99.90
71155;DHT22;59375;53.216;5.728;2023-02-11T07:51:32;7.20;99.90
71155;DHT22;59375;53.216;5.728;2023-02-11T07:53:58;7.20;99.90
71155;DHT22;59375;53.216;5.728;2023-02-11T07:56:24;7.20;99.90
71155;DHT22;59375;53.216;5.728;2023-02-11T07:58:49;7.30;99.90
71155;DHT22;59375;53.216;5.728;2023-02-11T08:01:19;7.30;99.90
71155;DHT22;59375;53.216;5.728;2023-02-11T08:03:46;7.30;99.90
71155;DHT22;59375;53.216;5.728;2023-02-11T08:06:13;7.40;99.90
71155;DHT22;59375;53.216;5.728;2023-02-11T08:08:39;7.40;99.90
71155;DHT22;59375;53.216;5.728;2023-02-11T08:11:05;7.50;99.90
71155;DHT22;59375;53.216;5.728;2023-02-11T08:13:31;7.50;99.90
71155;DHT22;59375;53.216;5.728;2023-02-11T08:15:57;7.50;99.90
71155;DHT22;59375;53.216;5.728;2023-02-11T08:18:23;7.50;99.90
71155;DHT22;59375;53.216;5.728;2023-02-11T08:20:48;7.60;99.90
71155;DHT22;59375;53.216;5.728;2023-02-11T08:23:14;7.60;99.90
71155;DHT22;59375;53.216;5.728;2023-02-11T08:25:39;7.70;99.90
71155;DHT22;59375;53.216;5.728;2023-02-11T08:28:05;7.70;99.90
71155;DHT22;59375;53.216;5.728;2023-02-11T08:30:30;7.80;99.90
71155;DHT22;59375;53.216;5.728;2023-02-11T08:32:56;7.90;99.90
71155;DHT22;59375;53.216;5.728;2023-02-11T08:35:22;8.00;99.90
71155;DHT22;59375;53.216;5.728;2023-02-11T08:37:47;8.10;99.90
71155;DHT22;59375;53.216;5.728;2023-02-11T08:40:13;8.10;99.90
71155;DHT22;59375;53.216;5.728;2023-02-11T08:42:38;8.10;99.90
71155;DHT22;59375;53.216;5.728;2023-02-11T08:45:04;8.20;99.90
71155;DHT22;59375;53.216;5.728;2023-02-11T08:47:29;8.20;99.90
71155;DHT22;59375;53.216;5.728;2023-02-11T08:49:55;8.20;99.90
71155;DHT22;59375;53.216;5.728;2023-02-11T08:52:21;8.30;99.90
71155;DHT22;59375;53.216;5.728;2023-02-11T08:54:46;8.30;99.90
71155;DHT22;59375;53.216;5.728;2023-02-11T08:57:12;8.30;99.90
71155;DHT22;59375;53.216;5.728;2023-02-11T08:59:37;8.40;99.90
71155;DHT22;59375;53.216;5.728;2023-02-11T09:02:04;8.50;99.90
71155;DHT22;59375;53.216;5.728;2023-02-11T09:04:30;8.50;99.90
71155;DHT22;59375;53.216;5.728;2023-02-11T09:06:55;8.50;99.90
71155;DHT22;59375;53.216;5.728;2023-02-11T09:09:21;8.60;99.90
71155;DHT22;59375;53.216;5.728;2023-02-11T09:11:46;8.60;99.90
71155;DHT22;59375;53.216;5.728;2023-02-11T09:14:17;8.60;99.90
71155;DHT22;59375;53.216;5.728;2023-02-11T09:16:43;8.60;99.90
71155;DHT22;59375;53.216;5.728;2023-02-11T09:19:09;8.60;99.90
71155;DHT22;59375;53.216;5.728;2023-02-11T09:21:34;8.60;99.90
71155;DHT22;59375;53.216;5.728;2023-02-11T09:24:00;8.60;99.90
71155;DHT22;59375;53.216;5.728;2023-02-11T09:26:29;8.60;99.90
71155;DHT22;59375;53.216;5.728;2023-02-11T09:28:55;8.60;99.90
71155;DHT22;59375;53.216;5.728;2023-02-11T09:31:22;8.70;99.90
71155;DHT22;59375;53.216;5.728;2023-02-11T09:33:48;8.70;99.90
71155;DHT22;59375;53.216;5.728;2023-02-11T09:36:16;8.70;99.90
71155;DHT22;59375;53.216;5.728;2023-02-11T09:38:42;8.70;99.90
71155;DHT22;59375;53.216;5.728;2023-02-11T09:41:31;8.70;99.90
71155;DHT22;59375;53.216;5.728;2023-02-11T09:43:57;8.70;99.90
71155;DHT22;59375;53.216;5.728;2023-02-11T09:46:23;8.80;99.90
71155;DHT22;59375;53.216;5.728;2023-02-11T09:48:51;8.80;99.90
71155;DHT22;59375;53.216;5.728;2023-02-11T09:51:23;8.80;99.90
71155;DHT22;59375;53.216;5.728;2023-02-11T09:53:55;8.80;99.90
71155;DHT22;59375;53.216;5.728;2023-02-11T09:56:22;8.80;99.90
71155;DHT22;59375;53.216;5.728;2023-02-11T09:58:48;8.90;99.90
71155;DHT22;59375;53.216;5.728;2023-02-11T10:03:48;8.90;99.90
71155;DHT22;59375;53.216;5.728;2023-02-11T10:08:54;9.00;99.90
71155;DHT22;59375;53.216;5.728;2023-02-11T10:13:55;9.10;99.90
71155;DHT22;59375;53.216;5.728;2023-02-11T10:18:57;9.20;99.90
71155;DHT22;59375;53.216;5.728;2023-02-11T10:21:29;9.20;99.90
71155;DHT22;59375;53.216;5.728;2023-02-11T10:23:59;9.20;99.90
71155;DHT22;59375;53.216;5.728;2023-02-11T10:26:26;9.20;99.90
71155;DHT22;59375;53.216;5.728;2023-02-11T10:28:55;9.20;99.90
71155;DHT22;59375;53.216;5.728;2023-02-11T10:31:24;9.20;99.90
71155;DHT22;59375;53.216;5.728;2023-02-11T10:33:58;9.30;99.90
71155;DHT22;59375;53.216;5.728;2023-02-11T10:36:27;9.30;99.90
71155;DHT22;59375;53.216;5.728;2023-02-11T10:38:53;9.40;99.90
71155;DHT22;59375;53.216;5.728;2023-02-11T10:41:20;9.40;99.90
71155;DHT22;59375;53.216;5.728;2023-02-11T10:43:47;9.60;99.90
71155;DHT22;59375;53.216;5.728;2023-02-11T10:46:15;9.80;99.90
71155;DHT22;59375;53.216;5.728;2023-02-11T10:53:39;10.40;99.90
71155;DHT22;59375;53.216;5.728;2023-02-11T10:56:05;10.60;99.90
71155;DHT22;59375;53.216;5.728;2023-02-11T10:58:33;10.70;99.90
71155;DHT22;59375;53.216;5.728;2023-02-11T11:00:59;10.90;99.90
71155;DHT22;59375;53.216;5.728;2023-02-11T11:04:09;10.90;99.90
71155;DHT22;59375;53.216;5.728;2023-02-11T11:06:13;10.90;99.90
71155;DHT22;59375;53.216;5.728;2023-02-11T11:11:05;11.20;99.90
71155;DHT22;59375;53.216;5.728;2023-02-11T11:13:33;11.20;99.90
71155;DHT22;59375;53.216;5.728;2023-02-11T11:18:36;11.50;99.90
71155;DHT22;59375;53.216;5.728;2023-02-11T11:21:03;11.40;99.90
71155;DHT22;59375;53.216;5.728;2023-02-11T11:23:30;11.40;99.90
71155;DHT22;59375;53.216;5.728;2023-02-11T11:26:09;11.50;99.90
71155;DHT22;59375;53.216;5.728;2023-02-11T11:28:37;11.60;99.90
71155;DHT22;59375;53.216;5.728;2023-02-11T11:31:03;11.70;99.90
71155;DHT22;59375;53.216;5.728;2023-02-11T11:33:33;11.70;99.90
71155;DHT22;59375;53.216;5.728;2023-02-11T11:36:03;11.70;99.90
71155;DHT22;59375;53.216;5.728;2023-02-11T11:38:30;11.70;99.90
71155;DHT22;59375;53.216;5.728;2023-02-11T11:41:13;11.80;99.90
71155;DHT22;59375;53.216;5.728;2023-02-11T11:43:39;12.00;99.90
71155;DHT22;59375;53.216;5.728;2023-02-11T11:46:04;12.30;99.90
71155;DHT22;59375;53.216;5.728;2023-02-11T11:48:33;12.70;99.90
71155;DHT22;59375;53.216;5.728;2023-02-11T11:51:03;13.00;99.90
71155;DHT22;59375;53.216;5.728;2023-02-11T11:53:36;13.20;99.90
71155;DHT22;59375;53.216;5.728;2023-02-11T11:56:04;13.30;99.90
71155;DHT22;59375;53.216;5.728;2023-02-11T11:58:32;13.40;99.90
71155;DHT22;59375;53.216;5.728;2023-02-11T12:01:16;13.40;99.90
71155;DHT22;59375;53.216;5.728;2023-02-11T12:09:15;13.50;99.90
71155;DHT22;59375;53.216;5.728;2023-02-11T12:12:00;13.50;99.90
71155;DHT22;59375;53.216;5.728;2023-02-11T12:16:59;13.40;99.90
71155;DHT22;59375;53.216;5.728;2023-02-11T12:22:15;13.00;99.90
71155;DHT22;59375;53.216;5.728;2023-02-11T12:24:52;12.90;99.90
71155;DHT22;59375;53.216;5.728;2023-02-11T12:30:13;12.60;99.90
71155;DHT22;59375;53.216;5.728;2023-02-11T12:35:17;12.20;99.90
71155;DHT22;59375;53.216;5.728;2023-02-11T12:40:14;11.80;99.90
71155;DHT22;59375;53.216;5.728;2023-02-11T12:50:58;11.60;99.90
71155;DHT22;59375;53.216;5.728;2023-02-11T12:58:51;11.50;99.90
71155;DHT22;59375;53.216;5.728;2023-02-11T13:06:19;11.80;99.90
71155;DHT22;59375;53.216;5.728;2023-02-11T13:08:47;11.90;99.90
71155;DHT22;59375;53.216;5.728;2023-02-11T13:11:16;12.00;99.90
71155;DHT22;59375;53.216;5.728;2023-02-11T13:13:47;12.00;99.90
71155;DHT22;59375;53.216;5.728;2023-02-11T13:16:28;11.80;99.90
71155;DHT22;59375;53.216;5.728;2023-02-11T13:21:40;11.50;99.90
71155;DHT22;59375;53.216;5.728;2023-02-11T13:30:11;11.50;99.90
71155;DHT22;59375;53.216;5.728;2023-02-11T13:31:53;11.50;99.90
71155;DHT22;59375;53.216;5.728;2023-02-11T13:34:22;11.40;99.90
71155;DHT22;59375;53.216;5.728;2023-02-11T13:36:52;11.20;99.90
71155;DHT22;59375;53.216;5.728;2023-02-11T13:39:19;11.20;99.90
71155;DHT22;59375;53.216;5.728;2023-02-11T13:41:45;11.10;99.90
71155;DHT22;59375;53.216;5.728;2023-02-11T13:49:38;11.10;99.90
71155;DHT22;59375;53.216;5.728;2023-02-11T13:52:14;11.10;99.90
71155;DHT22;59375;53.216;5.728;2023-02-11T13:54:40;11.20;99.90
71155;DHT22;59375;53.216;5.728;2023-02-11T14:13:22;10.80;99.90
71155;DHT22;59375;53.216;5.728;2023-02-11T14:15:48;10.90;99.90
71155;DHT22;59375;53.216;5.728;2023-02-11T14:18:34;11.00;99.90
71155;DHT22;59375;53.216;5.728;2023-02-11T14:23:44;11.20;99.90
71155;DHT22;59375;53.216;5.728;2023-02-11T14:28:58;11.30;99.90
71155;DHT22;59375;53.216;5.728;2023-02-11T14:31:37;11.40;99.90
71155;DHT22;59375;53.216;5.728;2023-02-11T14:39:19;11.40;99.90
71155;DHT22;59375;53.216;5.728;2023-02-11T14:41:47;11.40;99.90
71155;DHT22;59375;53.216;5.728;2023-02-11T14:44:14;11.30;99.90
71155;DHT22;59375;53.216;5.728;2023-02-11T14:46:45;11.30;99.90
71155;DHT22;59375;53.216;5.728;2023-02-11T14:49:15;11.20;99.90
71155;DHT22;59375;53.216;5.728;2023-02-11T14:51:42;11.00;99.90
71155;DHT22;59375;53.216;5.728;2023-02-11T14:54:09;10.80;99.90
71155;DHT22;59375;53.216;5.728;2023-02-11T14:56:39;10.60;99.90
71155;DHT22;59375;53.216;5.728;2023-02-11T14:59:20;10.50;99.90
71155;DHT22;59375;53.216;5.728;2023-02-11T15:01:49;10.30;99.90
71155;DHT22;59375;53.216;5.728;2023-02-11T15:04:22;10.20;99.90
71155;DHT22;59375;53.216;5.728;2023-02-11T15:06:48;10.10;99.90
71155;DHT22;59375;53.216;5.728;2023-02-11T15:09:25;10.10;99.90
71155;DHT22;59375;53.216;5.728;2023-02-11T15:11:53;10.00;99.90
71155;DHT22;59375;53.216;5.728;2023-02-11T15:14:23;9.90;99.90
71155;DHT22;59375;53.216;5.728;2023-02-11T15:16:49;9.90;99.90
71155;DHT22;59375;53.216;5.728;2023-02-11T15:19:28;9.80;99.90
71155;DHT22;59375;53.216;5.728;2023-02-11T15:21:54;9.70;99.90
71155;DHT22;59375;53.216;5.728;2023-02-11T15:24:27;9.60;99.90
71155;DHT22;59375;53.216;5.728;2023-02-11T15:26:57;9.60;99.90
71155;DHT22;59375;53.216;5.728;2023-02-11T15:29:24;9.50;99.90
71155;DHT22;59375;53.216;5.728;2023-02-11T15:32:11;9.50;99.90
71155;DHT22;59375;53.216;5.728;2023-02-11T15:34:37;9.40;99.90
71155;DHT22;59375;53.216;5.728;2023-02-11T15:37:03;9.40;99.90
71155;DHT22;59375;53.216;5.728;2023-02-11T15:39:33;9.40;99.90
71155;DHT22;59375;53.216;5.728;2023-02-11T15:42:17;9.30;99.90
71155;DHT22;59375;53.216;5.728;2023-02-11T15:44:43;9.30;99.90
71155;DHT22;59375;53.216;5.728;2023-02-11T15:47:11;9.20;99.90
71155;DHT22;59375;53.216;5.728;2023-02-11T15:49:38;9.20;99.90
71155;DHT22;59375;53.216;5.728;2023-02-11T15:52:08;9.10;99.90
71155;DHT22;59375;53.216;5.728;2023-02-11T15:54:34;9.00;99.90
71155;DHT22;59375;53.216;5.728;2023-02-11T15:57:03;8.90;99.90
71155;DHT22;59375;53.216;5.728;2023-02-11T15:59:32;8.80;99.90
71155;DHT22;59375;53.216;5.728;2023-02-11T16:04:50;8.70;99.90
71155;DHT22;59375;53.216;5.728;2023-02-11T16:10:00;8.60;99.90
71155;DHT22;59375;53.216;5.728;2023-02-11T16:12:26;8.50;99.90
71155;DHT22;59375;53.216;5.728;2023-02-11T16:14:51;8.40;99.90
71155;DHT22;59375;53.216;5.728;2023-02-11T16:19:43;8.30;99.90
71155;DHT22;59375;53.216;5.728;2023-02-11T16:22:10;8.30;99.90
71155;DHT22;59375;53.216;5.728;2023-02-11T16:24:36;8.20;99.90
71155;DHT22;59375;53.216;5.728;2023-02-11T16:27:03;8.20;99.90
71155;DHT22;59375;53.216;5.728;2023-02-11T16:29:29;8.10;99.90
71155;DHT22;59375;53.216;5.728;2023-02-11T16:32:14;8.10;99.90
71155;DHT22;59375;53.216;5.728;2023-02-11T16:34:40;8.10;99.90
71155;DHT22;59375;53.216;5.728;2023-02-11T16:37:05;8.00;99.90
71155;DHT22;59375;53.216;5.728;2023-02-11T16:39:31;8.00;99.90
71155;DHT22;59375;53.216;5.728;2023-02-11T16:41:56;7.90;99.90
71155;DHT22;59375;53.216;5.728;2023-02-11T16:44:22;7.90;99.90
71155;DHT22;59375;53.216;5.728;2023-02-11T16:46:48;7.90;99.90
71155;DHT22;59375;53.216;5.728;2023-02-11T16:49:19;7.90;99.90
71155;DHT22;59375;53.216;5.728;2023-02-11T16:51:46;7.90;99.90
71155;DHT22;59375;53.216;5.728;2023-02-11T16:54:13;7.80;99.90
71155;DHT22;59375;53.216;5.728;2023-02-11T16:56:39;7.80;99.90
71155;DHT22;59375;53.216;5.728;2023-02-11T16:59:05;7.80;99.90
71155;DHT22;59375;53.216;5.728;2023-02-11T17:01:30;7.70;99.90
71155;DHT22;59375;53.216;5.728;2023-02-11T17:03:56;7.70;99.90
71155;DHT22;59375;53.216;5.728;2023-02-11T17:06:21;7.60;99.90
71155;DHT22;59375;53.216;5.728;2023-02-11T17:08:47;7.50;99.90
71155;DHT22;59375;53.216;5.728;2023-02-11T17:11:12;7.50;99.90
71155;DHT22;59375;53.216;5.728;2023-02-11T17:13:41;7.50;99.90
71155;DHT22;59375;53.216;5.728;2023-02-11T17:16:22;7.40;99.90
71155;DHT22;59375;53.216;5.728;2023-02-11T17:18:49;7.40;99.90
71155;DHT22;59375;53.216;5.728;2023-02-11T17:21:14;7.30;99.90
71155;DHT22;59375;53.216;5.728;2023-02-11T17:23:40;7.20;99.90
71155;DHT22;59375;53.216;5.728;2023-02-11T17:26:06;7.10;99.90
71155;DHT22;59375;53.216;5.728;2023-02-11T17:28:31;7.10;99.90
71155;DHT22;59375;53.216;5.728;2023-02-11T17:30:57;7.10;99.90
71155;DHT22;59375;53.216;5.728;2023-02-11T17:33:25;7.10;99.90
71155;DHT22;59375;53.216;5.728;2023-02-11T17:35:51;7.10;99.90
71155;DHT22;59375;53.216;5.728;2023-02-11T17:38:16;7.10;99.90
71155;DHT22;59375;53.216;5.728;2023-02-11T17:40:42;7.00;99.90
71155;DHT22;59375;53.216;5.728;2023-02-11T17:43:07;7.00;99.90
71155;DHT22;59375;53.216;5.728;2023-02-11T17:45:33;7.00;99.90
71155;DHT22;59375;53.216;5.728;2023-02-11T17:47:58;7.00;99.90
71155;DHT22;59375;53.216;5.728;2023-02-11T17:50:24;6.90;99.90
71155;DHT22;59375;53.216;5.728;2023-02-11T17:52:49;6.90;99.90
71155;DHT22;59375;53.216;5.728;2023-02-11T17:55:15;6.80;99.90
71155;DHT22;59375;53.216;5.728;2023-02-11T17:57:40;6.80;99.90
71155;DHT22;59375;53.216;5.728;2023-02-11T18:00:06;6.70;99.90
71155;DHT22;59375;53.216;5.728;2023-02-11T18:02:32;6.70;99.90